Weather Center

VHHH METAR :
VHHH 142000Z 22006KT 180V270 9999 FEW015 SCT035 29/24 Q1003 NOSIG

VHHH TAF :
VHHH 141700Z 1418/1524 20010KT 9999 FEW015 SCT025 TX33/1506Z TN28/1422Z
TN28/1522Z
TEMPO 1421/1424 4000 SHRA FEW010CB SCT020
TEMPO 1500/1504 3500 -TSRA SHRA FEW010CB SCT020
TEMPO 1521/1524 4000 SHRA FEW010CB SCT020

VMMC METAR :
VMMCH

VMMC TAF :
VMMC 141700Z 1418/1524 18010KT 9999 FEW015

Comments are closed